sensor_id;sensor_type;location;lat;lon;timestamp;P1;durP1;ratioP1;P2;durP2;ratioP2
6828;SDS011;17930;48.592;8.868;2023-01-31T00:01:44;5.20;;;3.22;;
6828;SDS011;17930;48.592;8.868;2023-01-31T00:04:11;12.23;;;4.13;;
6828;SDS011;17930;48.592;8.868;2023-01-31T00:06:41;7.63;;;3.55;;
6828;SDS011;17930;48.592;8.868;2023-01-31T00:09:09;6.22;;;3.17;;
6828;SDS011;17930;48.592;8.868;2023-01-31T00:11:37;8.18;;;3.08;;
6828;SDS011;17930;48.592;8.868;2023-01-31T00:14:06;10.27;;;3.78;;
6828;SDS011;17930;48.592;8.868;2023-01-31T00:16:34;8.85;;;3.95;;
6828;SDS011;17930;48.592;8.868;2023-01-31T00:19:02;5.75;;;3.92;;
6828;SDS011;17930;48.592;8.868;2023-01-31T00:21:29;6.20;;;3.58;;
6828;SDS011;17930;48.592;8.868;2023-01-31T00:23:58;8.23;;;3.17;;
6828;SDS011;17930;48.592;8.868;2023-01-31T00:26:26;10.70;;;3.55;;
6828;SDS011;17930;48.592;8.868;2023-01-31T00:28:55;7.82;;;3.47;;
6828;SDS011;17930;48.592;8.868;2023-01-31T00:31:24;11.43;;;3.55;;
6828;SDS011;17930;48.592;8.868;2023-01-31T00:33:53;5.50;;;3.20;;
6828;SDS011;17930;48.592;8.868;2023-01-31T00:36:23;6.13;;;3.05;;
6828;SDS011;17930;48.592;8.868;2023-01-31T00:38:52;5.18;;;3.53;;
6828;SDS011;17930;48.592;8.868;2023-01-31T00:41:22;7.47;;;3.50;;
6828;SDS011;17930;48.592;8.868;2023-01-31T00:43:49;7.32;;;3.97;;
6828;SDS011;17930;48.592;8.868;2023-01-31T00:46:16;8.18;;;3.90;;
6828;SDS011;17930;48.592;8.868;2023-01-31T00:48:44;7.28;;;3.22;;
6828;SDS011;17930;48.592;8.868;2023-01-31T00:51:12;9.20;;;4.43;;
6828;SDS011;17930;48.592;8.868;2023-01-31T00:53:38;11.35;;;4.00;;
6828;SDS011;17930;48.592;8.868;2023-01-31T00:56:06;13.63;;;5.60;;
6828;SDS011;17930;48.592;8.868;2023-01-31T00:58:36;12.52;;;4.70;;
6828;SDS011;17930;48.592;8.868;2023-01-31T01:01:04;16.75;;;5.47;;
6828;SDS011;17930;48.592;8.868;2023-01-31T01:03:32;11.05;;;4.45;;
6828;SDS011;17930;48.592;8.868;2023-01-31T01:05:59;11.73;;;4.68;;
6828;SDS011;17930;48.592;8.868;2023-01-31T01:08:27;10.02;;;4.15;;
6828;SDS011;17930;48.592;8.868;2023-01-31T01:10:54;10.80;;;3.90;;
6828;SDS011;17930;48.592;8.868;2023-01-31T01:13:21;9.40;;;4.53;;
6828;SDS011;17930;48.592;8.868;2023-01-31T01:15:49;11.10;;;4.88;;
6828;SDS011;17930;48.592;8.868;2023-01-31T01:18:15;12.02;;;4.35;;
6828;SDS011;17930;48.592;8.868;2023-01-31T01:20:42;7.53;;;3.45;;
6828;SDS011;17930;48.592;8.868;2023-01-31T01:23:09;10.45;;;4.45;;
6828;SDS011;17930;48.592;8.868;2023-01-31T01:25:40;7.53;;;4.07;;
6828;SDS011;17930;48.592;8.868;2023-01-31T01:28:08;7.95;;;3.55;;
6828;SDS011;17930;48.592;8.868;2023-01-31T01:30:36;12.32;;;4.28;;
6828;SDS011;17930;48.592;8.868;2023-01-31T01:33:04;11.52;;;4.15;;
6828;SDS011;17930;48.592;8.868;2023-01-31T01:35:31;13.18;;;3.92;;
6828;SDS011;17930;48.592;8.868;2023-01-31T01:37:57;9.68;;;3.90;;
6828;SDS011;17930;48.592;8.868;2023-01-31T01:40:24;8.38;;;4.88;;
6828;SDS011;17930;48.592;8.868;2023-01-31T01:42:59;9.63;;;3.88;;
6828;SDS011;17930;48.592;8.868;2023-01-31T01:45:27;10.00;;;4.75;;
6828;SDS011;17930;48.592;8.868;2023-01-31T01:47:54;8.88;;;3.45;;
6828;SDS011;17930;48.592;8.868;2023-01-31T01:50:26;8.20;;;4.40;;
6828;SDS011;17930;48.592;8.868;2023-01-31T01:52:57;7.88;;;4.10;;
6828;SDS011;17930;48.592;8.868;2023-01-31T01:55:27;10.85;;;5.30;;
6828;SDS011;17930;48.592;8.868;2023-01-31T01:57:59;15.57;;;4.55;;
6828;SDS011;17930;48.592;8.868;2023-01-31T02:00:29;14.75;;;5.30;;
6828;SDS011;17930;48.592;8.868;2023-01-31T02:02:58;13.15;;;4.82;;
6828;SDS011;17930;48.592;8.868;2023-01-31T02:05:29;11.38;;;4.45;;
6828;SDS011;17930;48.592;8.868;2023-01-31T02:08:00;11.32;;;4.43;;
6828;SDS011;17930;48.592;8.868;2023-01-31T02:10:39;11.10;;;4.03;;
6828;SDS011;17930;48.592;8.868;2023-01-31T02:13:12;9.20;;;4.22;;
6828;SDS011;17930;48.592;8.868;2023-01-31T02:15:44;7.13;;;3.70;;
6828;SDS011;17930;48.592;8.868;2023-01-31T02:18:11;8.18;;;3.90;;
6828;SDS011;17930;48.592;8.868;2023-01-31T02:20:46;10.65;;;4.07;;
6828;SDS011;17930;48.592;8.868;2023-01-31T02:23:42;8.85;;;4.03;;
6828;SDS011;17930;48.592;8.868;2023-01-31T02:26:34;8.48;;;4.20;;
6828;SDS011;17930;48.592;8.868;2023-01-31T02:29:27;11.52;;;4.40;;
6828;SDS011;17930;48.592;8.868;2023-01-31T02:35:16;7.47;;;3.88;;
6828;SDS011;17930;48.592;8.868;2023-01-31T02:37:56;12.40;;;4.05;;
6828;SDS011;17930;48.592;8.868;2023-01-31T02:40:32;8.13;;;4.10;;
6828;SDS011;17930;48.592;8.868;2023-01-31T02:43:05;12.50;;;4.60;;
6828;SDS011;17930;48.592;8.868;2023-01-31T02:45:38;16.15;;;4.70;;
6828;SDS011;17930;48.592;8.868;2023-01-31T02:48:14;10.77;;;4.45;;
6828;SDS011;17930;48.592;8.868;2023-01-31T02:50:46;12.48;;;4.82;;
6828;SDS011;17930;48.592;8.868;2023-01-31T02:53:18;10.65;;;4.15;;
6828;SDS011;17930;48.592;8.868;2023-01-31T02:55:51;9.35;;;4.97;;
6828;SDS011;17930;48.592;8.868;2023-01-31T02:58:38;9.25;;;4.35;;
6828;SDS011;17930;48.592;8.868;2023-01-31T03:01:09;8.35;;;4.72;;
6828;SDS011;17930;48.592;8.868;2023-01-31T03:03:42;13.13;;;4.70;;
6828;SDS011;17930;48.592;8.868;2023-01-31T03:06:11;11.02;;;4.80;;
6828;SDS011;17930;48.592;8.868;2023-01-31T03:09:19;12.30;;;5.38;;
6828;SDS011;17930;48.592;8.868;2023-01-31T03:11:58;9.70;;;4.70;;
6828;SDS011;17930;48.592;8.868;2023-01-31T03:14:39;9.50;;;4.70;;
6828;SDS011;17930;48.592;8.868;2023-01-31T03:17:11;11.38;;;4.82;;
6828;SDS011;17930;48.592;8.868;2023-01-31T03:19:59;9.50;;;4.97;;
6828;SDS011;17930;48.592;8.868;2023-01-31T03:22:32;7.38;;;4.32;;
6828;SDS011;17930;48.592;8.868;2023-01-31T03:25:02;10.02;;;4.85;;
6828;SDS011;17930;48.592;8.868;2023-01-31T03:27:30;8.25;;;4.28;;
6828;SDS011;17930;48.592;8.868;2023-01-31T03:30:01;14.25;;;4.93;;
6828;SDS011;17930;48.592;8.868;2023-01-31T03:32:33;14.32;;;5.20;;
6828;SDS011;17930;48.592;8.868;2023-01-31T03:35:07;14.75;;;5.22;;
6828;SDS011;17930;48.592;8.868;2023-01-31T03:37:36;14.65;;;5.28;;
6828;SDS011;17930;48.592;8.868;2023-01-31T03:40:07;11.50;;;5.18;;
6828;SDS011;17930;48.592;8.868;2023-01-31T03:42:44;9.48;;;5.13;;
6828;SDS011;17930;48.592;8.868;2023-01-31T03:45:18;9.20;;;4.75;;
6828;SDS011;17930;48.592;8.868;2023-01-31T03:47:49;10.07;;;5.00;;
6828;SDS011;17930;48.592;8.868;2023-01-31T03:50:20;19.13;;;5.38;;
6828;SDS011;17930;48.592;8.868;2023-01-31T03:52:51;13.88;;;5.38;;
6828;SDS011;17930;48.592;8.868;2023-01-31T03:55:23;9.35;;;5.32;;
6828;SDS011;17930;48.592;8.868;2023-01-31T03:57:56;10.65;;;5.55;;
6828;SDS011;17930;48.592;8.868;2023-01-31T04:00:25;9.55;;;5.10;;
6828;SDS011;17930;48.592;8.868;2023-01-31T04:02:55;11.95;;;5.20;;
6828;SDS011;17930;48.592;8.868;2023-01-31T04:05:31;7.80;;;4.03;;
6828;SDS011;17930;48.592;8.868;2023-01-31T04:07:59;12.82;;;6.13;;
6828;SDS011;17930;48.592;8.868;2023-01-31T04:10:26;16.92;;;5.45;;
6828;SDS011;17930;48.592;8.868;2023-01-31T04:12:52;6.60;;;4.15;;
6828;SDS011;17930;48.592;8.868;2023-01-31T04:15:19;12.27;;;5.00;;
6828;SDS011;17930;48.592;8.868;2023-01-31T04:17:46;11.60;;;5.40;;
6828;SDS011;17930;48.592;8.868;2023-01-31T04:20:26;10.38;;;4.40;;
6828;SDS011;17930;48.592;8.868;2023-01-31T04:22:57;10.05;;;5.05;;
6828;SDS011;17930;48.592;8.868;2023-01-31T04:25:48;10.98;;;3.92;;
6828;SDS011;17930;48.592;8.868;2023-01-31T04:28:15;8.73;;;4.65;;
6828;SDS011;17930;48.592;8.868;2023-01-31T04:30:41;10.27;;;4.65;;
6828;SDS011;17930;48.592;8.868;2023-01-31T04:33:08;7.97;;;4.25;;
6828;SDS011;17930;48.592;8.868;2023-01-31T04:35:35;8.13;;;4.88;;
6828;SDS011;17930;48.592;8.868;2023-01-31T04:38:09;14.98;;;4.97;;
6828;SDS011;17930;48.592;8.868;2023-01-31T04:40:39;8.57;;;4.22;;
6828;SDS011;17930;48.592;8.868;2023-01-31T04:43:06;11.20;;;4.95;;
6828;SDS011;17930;48.592;8.868;2023-01-31T04:45:32;12.82;;;4.60;;
6828;SDS011;17930;48.592;8.868;2023-01-31T04:47:59;11.00;;;5.30;;
6828;SDS011;17930;48.592;8.868;2023-01-31T04:50:26;8.77;;;5.20;;
6828;SDS011;17930;48.592;8.868;2023-01-31T04:52:52;10.00;;;4.60;;
6828;SDS011;17930;48.592;8.868;2023-01-31T04:55:21;11.77;;;4.28;;
6828;SDS011;17930;48.592;8.868;2023-01-31T04:57:48;8.55;;;4.43;;
6828;SDS011;17930;48.592;8.868;2023-01-31T05:00:15;7.75;;;4.63;;
6828;SDS011;17930;48.592;8.868;2023-01-31T05:02:42;10.98;;;5.07;;
6828;SDS011;17930;48.592;8.868;2023-01-31T05:05:09;9.38;;;5.00;;
6828;SDS011;17930;48.592;8.868;2023-01-31T05:07:37;10.63;;;5.07;;
6828;SDS011;17930;48.592;8.868;2023-01-31T05:10:04;9.07;;;4.82;;
6828;SDS011;17930;48.592;8.868;2023-01-31T05:12:32;9.23;;;4.40;;
6828;SDS011;17930;48.592;8.868;2023-01-31T05:14:59;12.70;;;5.22;;
6828;SDS011;17930;48.592;8.868;2023-01-31T05:17:26;10.90;;;5.32;;
6828;SDS011;17930;48.592;8.868;2023-01-31T05:19:54;7.88;;;4.93;;
6828;SDS011;17930;48.592;8.868;2023-01-31T05:22:21;15.55;;;4.95;;
6828;SDS011;17930;48.592;8.868;2023-01-31T05:24:48;12.73;;;5.47;;
6828;SDS011;17930;48.592;8.868;2023-01-31T05:27:15;9.90;;;4.55;;
6828;SDS011;17930;48.592;8.868;2023-01-31T05:29:44;18.55;;;6.13;;
6828;SDS011;17930;48.592;8.868;2023-01-31T05:32:11;10.85;;;5.25;;
6828;SDS011;17930;48.592;8.868;2023-01-31T05:34:38;11.30;;;5.57;;
6828;SDS011;17930;48.592;8.868;2023-01-31T05:37:05;13.02;;;5.50;;
6828;SDS011;17930;48.592;8.868;2023-01-31T05:39:32;15.43;;;5.63;;
6828;SDS011;17930;48.592;8.868;2023-01-31T05:41:59;21.25;;;5.95;;
6828;SDS011;17930;48.592;8.868;2023-01-31T05:44:26;18.98;;;5.53;;
6828;SDS011;17930;48.592;8.868;2023-01-31T05:46:54;15.00;;;6.45;;
6828;SDS011;17930;48.592;8.868;2023-01-31T05:49:21;10.80;;;5.40;;
6828;SDS011;17930;48.592;8.868;2023-01-31T05:51:48;9.63;;;5.13;;
6828;SDS011;17930;48.592;8.868;2023-01-31T05:54:15;14.65;;;5.47;;
6828;SDS011;17930;48.592;8.868;2023-01-31T05:56:41;12.60;;;4.93;;
6828;SDS011;17930;48.592;8.868;2023-01-31T05:59:08;15.73;;;5.20;;
6828;SDS011;17930;48.592;8.868;2023-01-31T06:01:35;14.60;;;5.57;;
6828;SDS011;17930;48.592;8.868;2023-01-31T06:04:03;12.75;;;5.15;;
6828;SDS011;17930;48.592;8.868;2023-01-31T06:06:30;16.77;;;5.57;;
6828;SDS011;17930;48.592;8.868;2023-01-31T06:08:57;15.77;;;5.75;;
6828;SDS011;17930;48.592;8.868;2023-01-31T06:11:24;10.13;;;5.38;;
6828;SDS011;17930;48.592;8.868;2023-01-31T06:13:50;8.70;;;4.72;;
6828;SDS011;17930;48.592;8.868;2023-01-31T06:16:19;12.40;;;5.90;;
6828;SDS011;17930;48.592;8.868;2023-01-31T06:18:45;16.65;;;5.72;;
6828;SDS011;17930;48.592;8.868;2023-01-31T06:21:13;10.48;;;5.18;;
6828;SDS011;17930;48.592;8.868;2023-01-31T06:23:40;15.65;;;5.93;;
6828;SDS011;17930;48.592;8.868;2023-01-31T06:26:10;13.75;;;5.40;;
6828;SDS011;17930;48.592;8.868;2023-01-31T06:28:37;20.35;;;5.50;;
6828;SDS011;17930;48.592;8.868;2023-01-31T06:31:07;14.88;;;5.35;;
6828;SDS011;17930;48.592;8.868;2023-01-31T06:33:34;11.40;;;5.15;;
6828;SDS011;17930;48.592;8.868;2023-01-31T06:36:01;10.95;;;5.65;;
6828;SDS011;17930;48.592;8.868;2023-01-31T06:38:30;14.35;;;4.90;;
6828;SDS011;17930;48.592;8.868;2023-01-31T06:40:56;9.70;;;5.15;;
6828;SDS011;17930;48.592;8.868;2023-01-31T06:43:23;9.93;;;4.88;;
6828;SDS011;17930;48.592;8.868;2023-01-31T06:45:50;11.65;;;5.15;;
6828;SDS011;17930;48.592;8.868;2023-01-31T06:48:17;12.88;;;5.03;;
6828;SDS011;17930;48.592;8.868;2023-01-31T06:50:45;12.32;;;4.82;;
6828;SDS011;17930;48.592;8.868;2023-01-31T06:53:12;11.52;;;4.93;;
6828;SDS011;17930;48.592;8.868;2023-01-31T06:55:40;12.35;;;5.05;;
6828;SDS011;17930;48.592;8.868;2023-01-31T06:58:06;13.18;;;4.55;;
6828;SDS011;17930;48.592;8.868;2023-01-31T07:00:33;15.20;;;5.05;;
6828;SDS011;17930;48.592;8.868;2023-01-31T07:03:00;11.45;;;4.63;;
6828;SDS011;17930;48.592;8.868;2023-01-31T07:05:26;12.00;;;4.10;;
6828;SDS011;17930;48.592;8.868;2023-01-31T07:07:53;12.38;;;4.90;;
6828;SDS011;17930;48.592;8.868;2023-01-31T07:10:21;21.20;;;6.55;;
6828;SDS011;17930;48.592;8.868;2023-01-31T07:12:49;11.00;;;5.25;;
6828;SDS011;17930;48.592;8.868;2023-01-31T07:15:16;12.13;;;5.57;;
6828;SDS011;17930;48.592;8.868;2023-01-31T07:17:43;13.52;;;5.05;;
6828;SDS011;17930;48.592;8.868;2023-01-31T07:20:10;10.68;;;5.10;;
6828;SDS011;17930;48.592;8.868;2023-01-31T07:22:37;13.18;;;5.95;;
6828;SDS011;17930;48.592;8.868;2023-01-31T07:25:04;12.43;;;6.35;;
6828;SDS011;17930;48.592;8.868;2023-01-31T07:27:31;14.52;;;5.63;;
6828;SDS011;17930;48.592;8.868;2023-01-31T07:29:59;12.18;;;5.90;;
6828;SDS011;17930;48.592;8.868;2023-01-31T07:32:29;9.48;;;5.75;;
6828;SDS011;17930;48.592;8.868;2023-01-31T07:34:55;14.07;;;5.35;;
6828;SDS011;17930;48.592;8.868;2023-01-31T07:37:22;15.93;;;6.28;;
6828;SDS011;17930;48.592;8.868;2023-01-31T07:39:49;17.30;;;6.00;;
6828;SDS011;17930;48.592;8.868;2023-01-31T07:42:16;16.92;;;6.70;;
6828;SDS011;17930;48.592;8.868;2023-01-31T07:44:43;11.43;;;6.18;;
6828;SDS011;17930;48.592;8.868;2023-01-31T07:47:11;12.88;;;7.13;;
6828;SDS011;17930;48.592;8.868;2023-01-31T07:49:37;12.13;;;6.57;;
6828;SDS011;17930;48.592;8.868;2023-01-31T07:52:04;11.85;;;6.53;;
6828;SDS011;17930;48.592;8.868;2023-01-31T07:54:31;15.55;;;6.35;;
6828;SDS011;17930;48.592;8.868;2023-01-31T07:56:57;20.30;;;6.05;;
6828;SDS011;17930;48.592;8.868;2023-01-31T07:59:24;23.20;;;7.18;;
6828;SDS011;17930;48.592;8.868;2023-01-31T08:01:51;12.38;;;5.32;;
6828;SDS011;17930;48.592;8.868;2023-01-31T08:04:39;15.77;;;6.38;;
6828;SDS011;17930;48.592;8.868;2023-01-31T08:07:06;18.38;;;7.00;;
6828;SDS011;17930;48.592;8.868;2023-01-31T08:09:34;14.25;;;6.57;;
6828;SDS011;17930;48.592;8.868;2023-01-31T08:12:04;12.60;;;7.47;;
6828;SDS011;17930;48.592;8.868;2023-01-31T08:14:37;22.52;;;8.10;;
6828;SDS011;17930;48.592;8.868;2023-01-31T08:17:08;19.30;;;7.35;;
6828;SDS011;17930;48.592;8.868;2023-01-31T08:19:36;12.82;;;6.90;;
6828;SDS011;17930;48.592;8.868;2023-01-31T08:22:05;15.57;;;7.65;;
6828;SDS011;17930;48.592;8.868;2023-01-31T08:24:35;19.65;;;6.97;;
6828;SDS011;17930;48.592;8.868;2023-01-31T08:27:02;14.57;;;6.70;;
6828;SDS011;17930;48.592;8.868;2023-01-31T08:29:39;17.30;;;6.70;;
6828;SDS011;17930;48.592;8.868;2023-01-31T08:32:08;16.13;;;7.07;;
6828;SDS011;17930;48.592;8.868;2023-01-31T08:34:34;15.93;;;6.67;;
6828;SDS011;17930;48.592;8.868;2023-01-31T08:37:01;13.40;;;6.43;;
6828;SDS011;17930;48.592;8.868;2023-01-31T08:39:32;10.40;;;4.83;;
6828;SDS011;17930;48.592;8.868;2023-01-31T08:41:58;6.63;;;3.37;;
6828;SDS011;17930;48.592;8.868;2023-01-31T08:44:26;12.30;;;3.93;;
6828;SDS011;17930;48.592;8.868;2023-01-31T08:46:53;5.90;;;2.93;;
6828;SDS011;17930;48.592;8.868;2023-01-31T08:49:20;7.57;;;4.00;;
6828;SDS011;17930;48.592;8.868;2023-01-31T08:51:46;9.00;;;3.70;;
6828;SDS011;17930;48.592;8.868;2023-01-31T08:54:13;5.93;;;2.60;;
6828;SDS011;17930;48.592;8.868;2023-01-31T08:56:41;5.50;;;2.90;;
6828;SDS011;17930;48.592;8.868;2023-01-31T08:59:13;4.43;;;2.53;;
6828;SDS011;17930;48.592;8.868;2023-01-31T09:01:43;7.40;;;2.40;;
6828;SDS011;17930;48.592;8.868;2023-01-31T09:04:10;9.13;;;2.60;;
6828;SDS011;17930;48.592;8.868;2023-01-31T09:06:37;8.33;;;2.93;;
6828;SDS011;17930;48.592;8.868;2023-01-31T09:09:07;5.97;;;2.63;;
6828;SDS011;17930;48.592;8.868;2023-01-31T09:11:34;5.47;;;2.57;;
6828;SDS011;17930;48.592;8.868;2023-01-31T09:14:03;9.03;;;2.80;;
6828;SDS011;17930;48.592;8.868;2023-01-31T09:16:29;4.90;;;2.63;;
6828;SDS011;17930;48.592;8.868;2023-01-31T09:18:56;5.17;;;2.13;;
6828;SDS011;17930;48.592;8.868;2023-01-31T09:21:23;7.83;;;2.90;;
6828;SDS011;17930;48.592;8.868;2023-01-31T09:23:53;6.83;;;2.43;;
6828;SDS011;17930;48.592;8.868;2023-01-31T09:26:21;12.57;;;3.03;;
6828;SDS011;17930;48.592;8.868;2023-01-31T09:28:47;6.57;;;2.47;;
6828;SDS011;17930;48.592;8.868;2023-01-31T09:31:17;12.13;;;3.23;;
6828;SDS011;17930;48.592;8.868;2023-01-31T09:33:45;7.30;;;2.77;;
6828;SDS011;17930;48.592;8.868;2023-01-31T09:36:12;15.60;;;4.67;;
6828;SDS011;17930;48.592;8.868;2023-01-31T09:38:41;11.87;;;3.70;;
6828;SDS011;17930;48.592;8.868;2023-01-31T09:41:12;28.00;;;9.47;;
6828;SDS011;17930;48.592;8.868;2023-01-31T09:43:43;5.90;;;3.10;;
6828;SDS011;17930;48.592;8.868;2023-01-31T09:46:17;17.40;;;6.70;;
6828;SDS011;17930;48.592;8.868;2023-01-31T09:48:47;12.97;;;4.07;;
6828;SDS011;17930;48.592;8.868;2023-01-31T09:51:16;6.47;;;2.90;;
6828;SDS011;17930;48.592;8.868;2023-01-31T09:53:44;8.50;;;3.20;;
6828;SDS011;17930;48.592;8.868;2023-01-31T09:56:14;5.33;;;2.57;;
6828;SDS011;17930;48.592;8.868;2023-01-31T09:58:51;10.47;;;3.77;;
6828;SDS011;17930;48.592;8.868;2023-01-31T10:01:24;6.43;;;2.47;;
6828;SDS011;17930;48.592;8.868;2023-01-31T10:03:58;7.67;;;1.97;;
6828;SDS011;17930;48.592;8.868;2023-01-31T10:06:35;5.32;;;2.70;;
6828;SDS011;17930;48.592;8.868;2023-01-31T10:09:09;9.65;;;2.85;;
6828;SDS011;17930;48.592;8.868;2023-01-31T10:11:46;5.70;;;2.75;;
6828;SDS011;17930;48.592;8.868;2023-01-31T10:14:21;12.90;;;2.40;;
6828;SDS011;17930;48.592;8.868;2023-01-31T10:16:59;4.35;;;2.42;;
6828;SDS011;17930;48.592;8.868;2023-01-31T10:19:31;7.43;;;2.47;;
6828;SDS011;17930;48.592;8.868;2023-01-31T10:22:06;5.82;;;2.72;;
6828;SDS011;17930;48.592;8.868;2023-01-31T10:24:35;6.93;;;2.50;;
6828;SDS011;17930;48.592;8.868;2023-01-31T10:27:09;4.80;;;2.08;;
6828;SDS011;17930;48.592;8.868;2023-01-31T10:29:40;6.07;;;2.00;;
6828;SDS011;17930;48.592;8.868;2023-01-31T10:32:13;4.25;;;1.85;;
6828;SDS011;17930;48.592;8.868;2023-01-31T10:34:46;4.70;;;1.90;;
6828;SDS011;17930;48.592;8.868;2023-01-31T10:37:19;6.33;;;1.83;;
6828;SDS011;17930;48.592;8.868;2023-01-31T10:39:57;3.07;;;1.50;;
6828;SDS011;17930;48.592;8.868;2023-01-31T10:42:28;4.63;;;1.87;;
6828;SDS011;17930;48.592;8.868;2023-01-31T10:44:57;7.60;;;2.00;;
6828;SDS011;17930;48.592;8.868;2023-01-31T10:47:32;5.93;;;1.83;;
6828;SDS011;17930;48.592;8.868;2023-01-31T10:50:01;4.57;;;1.70;;
6828;SDS011;17930;48.592;8.868;2023-01-31T10:52:44;7.88;;;2.20;;
6828;SDS011;17930;48.592;8.868;2023-01-31T10:58:17;6.80;;;1.83;;
6828;SDS011;17930;48.592;8.868;2023-01-31T11:00:47;3.77;;;2.20;;
6828;SDS011;17930;48.592;8.868;2023-01-31T11:03:15;3.30;;;1.97;;
6828;SDS011;17930;48.592;8.868;2023-01-31T11:05:45;4.57;;;1.43;;
6828;SDS011;17930;48.592;8.868;2023-01-31T11:08:25;9.03;;;1.93;;
6828;SDS011;17930;48.592;8.868;2023-01-31T11:10:57;3.80;;;1.60;;
6828;SDS011;17930;48.592;8.868;2023-01-31T11:13:29;5.90;;;1.92;;
6828;SDS011;17930;48.592;8.868;2023-01-31T11:15:56;6.35;;;1.52;;
6828;SDS011;17930;48.592;8.868;2023-01-31T11:18:26;6.03;;;1.85;;
6828;SDS011;17930;48.592;8.868;2023-01-31T11:20:55;5.60;;;1.45;;
6828;SDS011;17930;48.592;8.868;2023-01-31T11:23:23;4.88;;;1.70;;
6828;SDS011;17930;48.592;8.868;2023-01-31T11:25:52;5.53;;;1.80;;
6828;SDS011;17930;48.592;8.868;2023-01-31T11:28:21;8.13;;;2.00;;
6828;SDS011;17930;48.592;8.868;2023-01-31T11:30:54;11.63;;;2.60;;
6828;SDS011;17930;48.592;8.868;2023-01-31T11:33:39;6.53;;;1.83;;
6828;SDS011;17930;48.592;8.868;2023-01-31T11:36:09;4.87;;;2.03;;
6828;SDS011;17930;48.592;8.868;2023-01-31T11:38:37;6.00;;;1.97;;
6828;SDS011;17930;48.592;8.868;2023-01-31T11:44:06;5.63;;;1.67;;
6828;SDS011;17930;48.592;8.868;2023-01-31T11:46:41;3.47;;;1.90;;
6828;SDS011;17930;48.592;8.868;2023-01-31T11:49:17;3.20;;;1.70;;
6828;SDS011;17930;48.592;8.868;2023-01-31T11:51:48;3.80;;;1.88;;
6828;SDS011;17930;48.592;8.868;2023-01-31T11:54:17;4.25;;;1.95;;
6828;SDS011;17930;48.592;8.868;2023-01-31T11:56:47;3.78;;;1.95;;
6828;SDS011;17930;48.592;8.868;2023-01-31T11:59:15;6.53;;;1.77;;
6828;SDS011;17930;48.592;8.868;2023-01-31T12:01:45;5.97;;;2.30;;
6828;SDS011;17930;48.592;8.868;2023-01-31T12:04:17;5.63;;;1.90;;
6828;SDS011;17930;48.592;8.868;2023-01-31T12:06:54;4.73;;;1.83;;
6828;SDS011;17930;48.592;8.868;2023-01-31T12:09:28;3.95;;;1.98;;
6828;SDS011;17930;48.592;8.868;2023-01-31T12:11:58;5.95;;;1.70;;
6828;SDS011;17930;48.592;8.868;2023-01-31T12:14:35;7.43;;;2.05;;
6828;SDS011;17930;48.592;8.868;2023-01-31T12:17:04;5.25;;;1.60;;
6828;SDS011;17930;48.592;8.868;2023-01-31T12:19:42;7.18;;;1.90;;
6828;SDS011;17930;48.592;8.868;2023-01-31T12:22:17;9.07;;;1.95;;
6828;SDS011;17930;48.592;8.868;2023-01-31T12:24:55;8.25;;;2.40;;
6828;SDS011;17930;48.592;8.868;2023-01-31T12:27:32;4.80;;;1.83;;
6828;SDS011;17930;48.592;8.868;2023-01-31T12:30:15;4.97;;;1.70;;
6828;SDS011;17930;48.592;8.868;2023-01-31T12:33:04;6.38;;;1.85;;
6828;SDS011;17930;48.592;8.868;2023-01-31T12:35:43;4.35;;;2.10;;
6828;SDS011;17930;48.592;8.868;2023-01-31T12:38:21;6.65;;;2.15;;
6828;SDS011;17930;48.592;8.868;2023-01-31T12:41:07;2.30;;;1.77;;
6828;SDS011;17930;48.592;8.868;2023-01-31T12:43:55;3.63;;;1.92;;
6828;SDS011;17930;48.592;8.868;2023-01-31T12:46:35;5.85;;;1.75;;
6828;SDS011;17930;48.592;8.868;2023-01-31T12:49:23;9.43;;;2.30;;
6828;SDS011;17930;48.592;8.868;2023-01-31T12:52:13;6.25;;;3.15;;
6828;SDS011;17930;48.592;8.868;2023-01-31T12:54:53;9.20;;;2.10;;
6828;SDS011;17930;48.592;8.868;2023-01-31T12:57:32;3.88;;;2.25;;
6828;SDS011;17930;48.592;8.868;2023-01-31T13:00:11;6.30;;;2.20;;
6828;SDS011;17930;48.592;8.868;2023-01-31T13:02:49;4.43;;;2.30;;
6828;SDS011;17930;48.592;8.868;2023-01-31T13:05:30;5.85;;;2.47;;
6828;SDS011;17930;48.592;8.868;2023-01-31T13:08:04;6.43;;;2.13;;
6828;SDS011;17930;48.592;8.868;2023-01-31T13:10:42;7.63;;;1.88;;
6828;SDS011;17930;48.592;8.868;2023-01-31T13:13:14;9.10;;;2.50;;
6828;SDS011;17930;48.592;8.868;2023-01-31T13:15:46;7.72;;;2.85;;
6828;SDS011;17930;48.592;8.868;2023-01-31T13:18:16;6.93;;;3.15;;
6828;SDS011;17930;48.592;8.868;2023-01-31T13:20:46;6.97;;;2.67;;
6828;SDS011;17930;48.592;8.868;2023-01-31T13:23:20;9.60;;;3.30;;
6828;SDS011;17930;48.592;8.868;2023-01-31T13:25:55;7.82;;;2.53;;
6828;SDS011;17930;48.592;8.868;2023-01-31T13:28:28;7.50;;;3.22;;
6828;SDS011;17930;48.592;8.868;2023-01-31T13:30:59;8.02;;;3.50;;
6828;SDS011;17930;48.592;8.868;2023-01-31T13:33:30;10.75;;;3.88;;
6828;SDS011;17930;48.592;8.868;2023-01-31T13:36:05;7.97;;;3.00;;
6828;SDS011;17930;48.592;8.868;2023-01-31T13:38:43;8.65;;;3.95;;
6828;SDS011;17930;48.592;8.868;2023-01-31T13:41:12;20.25;;;5.75;;
6828;SDS011;17930;48.592;8.868;2023-01-31T13:43:46;17.52;;;6.50;;
6828;SDS011;17930;48.592;8.868;2023-01-31T13:46:12;7.40;;;2.70;;
6828;SDS011;17930;48.592;8.868;2023-01-31T13:48:46;9.52;;;3.80;;
6828;SDS011;17930;48.592;8.868;2023-01-31T13:51:18;10.65;;;4.00;;
6828;SDS011;17930;48.592;8.868;2023-01-31T13:53:52;15.23;;;5.53;;
6828;SDS011;17930;48.592;8.868;2023-01-31T13:56:25;11.00;;;4.28;;
6828;SDS011;17930;48.592;8.868;2023-01-31T13:58:56;9.77;;;4.78;;
6828;SDS011;17930;48.592;8.868;2023-01-31T14:01:24;9.90;;;3.42;;
6828;SDS011;17930;48.592;8.868;2023-01-31T14:06:55;9.80;;;3.70;;
6828;SDS011;17930;48.592;8.868;2023-01-31T14:09:41;4.40;;;2.60;;
6828;SDS011;17930;48.592;8.868;2023-01-31T14:12:30;9.15;;;4.32;;
6828;SDS011;17930;48.592;8.868;2023-01-31T14:14:58;13.30;;;6.25;;
6828;SDS011;17930;48.592;8.868;2023-01-31T14:20:24;8.17;;;4.23;;
6828;SDS011;17930;48.592;8.868;2023-01-31T14:25:58;10.00;;;4.85;;
6828;SDS011;17930;48.592;8.868;2023-01-31T14:28:25;10.52;;;3.70;;
6828;SDS011;17930;48.592;8.868;2023-01-31T14:30:52;4.05;;;1.98;;
6828;SDS011;17930;48.592;8.868;2023-01-31T14:33:22;5.68;;;2.78;;
6828;SDS011;17930;48.592;8.868;2023-01-31T14:36:04;6.97;;;2.78;;
6828;SDS011;17930;48.592;8.868;2023-01-31T14:45:01;7.23;;;3.00;;
6828;SDS011;17930;48.592;8.868;2023-01-31T14:47:44;5.25;;;2.60;;
6828;SDS011;17930;48.592;8.868;2023-01-31T14:50:28;6.35;;;2.78;;
6828;SDS011;17930;48.592;8.868;2023-01-31T14:53:13;4.45;;;2.40;;
6828;SDS011;17930;48.592;8.868;2023-01-31T14:56:06;5.72;;;2.15;;
6828;SDS011;17930;48.592;8.868;2023-01-31T14:58:44;4.10;;;2.47;;
6828;SDS011;17930;48.592;8.868;2023-01-31T15:01:16;3.33;;;1.90;;
6828;SDS011;17930;48.592;8.868;2023-01-31T15:03:49;5.60;;;2.07;;
6828;SDS011;17930;48.592;8.868;2023-01-31T15:06:21;4.13;;;2.07;;
6828;SDS011;17930;48.592;8.868;2023-01-31T15:08:50;3.33;;;2.13;;
6828;SDS011;17930;48.592;8.868;2023-01-31T15:11:52;3.80;;;2.50;;
6828;SDS011;17930;48.592;8.868;2023-01-31T15:14:27;3.83;;;2.40;;
6828;SDS011;17930;48.592;8.868;2023-01-31T15:16:59;5.47;;;2.60;;
6828;SDS011;17930;48.592;8.868;2023-01-31T15:19:29;10.98;;;3.55;;
6828;SDS011;17930;48.592;8.868;2023-01-31T15:22:03;10.10;;;2.97;;
6828;SDS011;17930;48.592;8.868;2023-01-31T15:24:33;3.90;;;1.90;;
6828;SDS011;17930;48.592;8.868;2023-01-31T15:27:05;6.93;;;3.03;;
6828;SDS011;17930;48.592;8.868;2023-01-31T15:29:41;4.90;;;2.33;;
6828;SDS011;17930;48.592;8.868;2023-01-31T15:32:20;4.50;;;2.22;;
6828;SDS011;17930;48.592;8.868;2023-01-31T15:34:52;5.93;;;3.20;;
6828;SDS011;17930;48.592;8.868;2023-01-31T15:37:22;9.38;;;3.40;;
6828;SDS011;17930;48.592;8.868;2023-01-31T15:39:54;4.15;;;2.47;;
6828;SDS011;17930;48.592;8.868;2023-01-31T15:42:25;15.18;;;5.72;;
6828;SDS011;17930;48.592;8.868;2023-01-31T15:45:11;9.52;;;3.15;;